Sunday, October 22, 2017, 5:04 PM EDT
Back to Local

KHPN, White Plains Westchester

Location: Greenwich, NY, United States Lat: 41.067
Local Time: 5:04 PM EDT (21:04 GMT) Lon: -73.7
Time Zone: US/Eastern Elev: 439 ft

Show me the last for .
Show Decoded

2017-10-22 15:56 METAR KHPN 221956Z 15008KT 10SM CLR 23/07 A3036 RMK AO2 SLP278 T02280067 $ =
2017-10-22 14:56 METAR KHPN 221856Z 17008KT 10SM CLR 23/06 A3036 RMK AO2 SLP279 T02330056 $ =
2017-10-22 13:56 METAR KHPN 221756Z 19006KT 10SM CLR 23/06 A3037 RMK AO2 SLP283 T02330056 10239
                 20111 58012 $ =
2017-10-22 12:56 METAR KHPN 221656Z 15006KT 10SM CLR 23/06 A3039 RMK AO2 SLP289 T02280061 $ =
2017-10-22 11:56 METAR KHPN 221556Z 18005KT 10SM CLR 22/07 A3040 RMK AO2 SLP292 T02220067 $ =
2017-10-22 10:56 METAR KHPN 221456Z 15005KT 10SM CLR 21/07 A3041 RMK AO2 SLP295 T02060072 50005 $
                 =
2017-10-22 09:56 METAR KHPN 221356Z 15005KT 10SM CLR 20/07 A3041 RMK AO2 SLP296 T02000072 $ =
2017-10-22 08:56 METAR KHPN 221256Z 30003KT 10SM CLR 16/08 A3041 RMK AO2 SLP297 T01560078 $ =
2017-10-22 07:56 METAR KHPN 221156Z 29005KT 10SM CLR 11/08 A3039 RMK AO2 SLP291 T01110083 10111
                 20078 53010 $ =
2017-10-22 06:56 METAR KHPN 221056Z 29005KT 10SM CLR 09/07 A3038 RMK AO2 SLP287 T00890072 $ =
2017-10-22 05:56 METAR KHPN 220956Z 30005KT 10SM CLR 08/07 A3037 RMK AO2 SLP283 T00830067 $ =
2017-10-22 04:56 METAR KHPN 220856Z 29003KT 10SM CLR 09/07 A3036 RMK AO2 SLP280 T00890072 53003 $
                 =
2017-10-22 03:56 METAR KHPN 220756Z 30004KT 10SM CLR 11/08 A3035 RMK AO2 SLP275 T01060078 $ =
2017-10-22 02:56 METAR KHPN 220656Z 30006KT 10SM CLR 10/08 A3034 RMK AO2 SLP273 T01000078 $ =
2017-10-22 01:56 METAR KHPN 220556Z 31005KT 10SM CLR 11/09 A3035 RMK AO2 SLP274 T01110089 10150
                 20094 50000 $ =
2017-10-22 00:56 METAR KHPN 220456Z 31006KT 10SM CLR 11/08 A3035 RMK AO2 SLP276 T01060083
                 402610078 $ =
2017-10-21 23:56 METAR KHPN 220356Z 29004KT 10SM CLR 11/08 A3035 RMK AO2 SLP276 T01110083 $ =
2017-10-21 22:56 METAR KHPN 220256Z 00000KT 10SM CLR 12/08 A3035 RMK AO2 SLP275 T01220078 50005 $
                 =
2017-10-21 21:56 METAR KHPN 220156Z 32004KT 10SM CLR 12/07 A3035 RMK AO2 SLP277 T01220072 $ =
2017-10-21 20:56 METAR KHPN 220056Z 00000KT 10SM CLR 13/06 A3035 RMK AO2 SLP276 T01280061 =
2017-10-21 19:56 METAR KHPN 212356Z 00000KT 10SM CLR 14/08 A3033 RMK AO2 SLP273 T01390078 10261
                 20133 51013 =
2017-10-21 18:56 METAR KHPN 212256Z 00000KT 10SM CLR 16/08 A3033 RMK AO2 SLP270 T01560083 =
2017-10-21 17:56 METAR KHPN 212156Z 18005KT 10SM CLR 20/07 A3031 RMK AO2 SLP263 T02000067 =

Support USWX by starting your Amazon purchase here.